sensor_id;sensor_type;location;lat;lon;timestamp;P1;durP1;ratioP1;P2;durP2;ratioP2
3991;SDS011;2010;48.194;16.394;2023-02-28T00:01:45;15.53;;;9.00;;
3991;SDS011;2010;48.194;16.394;2023-02-28T00:04:21;13.57;;;9.03;;
3991;SDS011;2010;48.194;16.394;2023-02-28T00:06:52;14.13;;;10.13;;
3991;SDS011;2010;48.194;16.394;2023-02-28T00:09:24;14.23;;;10.40;;
3991;SDS011;2010;48.194;16.394;2023-02-28T00:11:54;16.80;;;10.63;;
3991;SDS011;2010;48.194;16.394;2023-02-28T00:14:26;11.40;;;8.17;;
3991;SDS011;2010;48.194;16.394;2023-02-28T00:16:55;14.67;;;9.00;;
3991;SDS011;2010;48.194;16.394;2023-02-28T00:19:27;17.03;;;9.40;;
3991;SDS011;2010;48.194;16.394;2023-02-28T00:21:59;15.03;;;10.00;;
3991;SDS011;2010;48.194;16.394;2023-02-28T00:24:29;14.70;;;9.57;;
3991;SDS011;2010;48.194;16.394;2023-02-28T00:27:07;15.67;;;9.87;;
3991;SDS011;2010;48.194;16.394;2023-02-28T00:29:47;14.50;;;10.10;;
3991;SDS011;2010;48.194;16.394;2023-02-28T00:32:21;14.03;;;9.53;;
3991;SDS011;2010;48.194;16.394;2023-02-28T00:34:50;17.97;;;9.97;;
3991;SDS011;2010;48.194;16.394;2023-02-28T00:37:28;21.33;;;10.00;;
3991;SDS011;2010;48.194;16.394;2023-02-28T00:39:57;16.50;;;9.83;;
3991;SDS011;2010;48.194;16.394;2023-02-28T00:42:26;15.23;;;9.57;;
3991;SDS011;2010;48.194;16.394;2023-02-28T00:44:58;14.13;;;10.20;;
3991;SDS011;2010;48.194;16.394;2023-02-28T00:47:31;18.20;;;11.20;;
3991;SDS011;2010;48.194;16.394;2023-02-28T00:50:05;20.17;;;10.50;;
3991;SDS011;2010;48.194;16.394;2023-02-28T00:52:39;12.20;;;9.47;;
3991;SDS011;2010;48.194;16.394;2023-02-28T00:55:12;20.87;;;10.20;;
3991;SDS011;2010;48.194;16.394;2023-02-28T00:57:49;15.10;;;10.30;;
3991;SDS011;2010;48.194;16.394;2023-02-28T01:00:18;17.63;;;10.43;;
3991;SDS011;2010;48.194;16.394;2023-02-28T01:02:50;13.73;;;9.50;;
3991;SDS011;2010;48.194;16.394;2023-02-28T01:05:22;15.53;;;10.63;;
3991;SDS011;2010;48.194;16.394;2023-02-28T01:07:55;15.13;;;10.17;;
3991;SDS011;2010;48.194;16.394;2023-02-28T01:10:24;19.53;;;11.00;;
3991;SDS011;2010;48.194;16.394;2023-02-28T01:12:54;17.53;;;10.03;;
3991;SDS011;2010;48.194;16.394;2023-02-28T01:15:26;18.90;;;10.33;;
3991;SDS011;2010;48.194;16.394;2023-02-28T01:18:04;15.73;;;10.17;;
3991;SDS011;2010;48.194;16.394;2023-02-28T01:20:36;16.40;;;9.93;;
3991;SDS011;2010;48.194;16.394;2023-02-28T01:23:17;17.20;;;10.77;;
3991;SDS011;2010;48.194;16.394;2023-02-28T01:25:51;14.93;;;10.20;;
3991;SDS011;2010;48.194;16.394;2023-02-28T01:28:23;15.83;;;10.40;;
3991;SDS011;2010;48.194;16.394;2023-02-28T01:30:56;15.73;;;10.50;;
3991;SDS011;2010;48.194;16.394;2023-02-28T01:33:28;18.03;;;10.00;;
3991;SDS011;2010;48.194;16.394;2023-02-28T01:36:02;17.00;;;11.17;;
3991;SDS011;2010;48.194;16.394;2023-02-28T01:38:33;15.53;;;9.70;;
3991;SDS011;2010;48.194;16.394;2023-02-28T01:41:15;17.73;;;10.70;;
3991;SDS011;2010;48.194;16.394;2023-02-28T01:46:37;16.90;;;10.10;;
3991;SDS011;2010;48.194;16.394;2023-02-28T01:49:06;15.43;;;10.40;;
3991;SDS011;2010;48.194;16.394;2023-02-28T01:51:38;17.03;;;10.70;;
3991;SDS011;2010;48.194;16.394;2023-02-28T01:54:20;16.13;;;10.00;;
3991;SDS011;2010;48.194;16.394;2023-02-28T01:57:01;15.90;;;10.80;;
3991;SDS011;2010;48.194;16.394;2023-02-28T01:59:37;16.60;;;9.93;;
3991;SDS011;2010;48.194;16.394;2023-02-28T02:02:14;16.30;;;9.80;;
3991;SDS011;2010;48.194;16.394;2023-02-28T02:04:54;19.43;;;10.60;;
3991;SDS011;2010;48.194;16.394;2023-02-28T02:07:29;17.63;;;10.80;;
3991;SDS011;2010;48.194;16.394;2023-02-28T02:10:04;18.60;;;10.77;;
3991;SDS011;2010;48.194;16.394;2023-02-28T02:12:44;14.30;;;9.97;;
3991;SDS011;2010;48.194;16.394;2023-02-28T02:15:53;15.57;;;10.30;;
3991;SDS011;2010;48.194;16.394;2023-02-28T02:18:30;15.90;;;10.93;;
3991;SDS011;2010;48.194;16.394;2023-02-28T02:27:24;15.93;;;10.60;;
3991;SDS011;2010;48.194;16.394;2023-02-28T02:36:19;18.90;;;10.00;;
3991;SDS011;2010;48.194;16.394;2023-02-28T02:38:53;18.90;;;9.70;;
3991;SDS011;2010;48.194;16.394;2023-02-28T02:41:36;18.53;;;10.70;;
3991;SDS011;2010;48.194;16.394;2023-02-28T02:44:11;14.50;;;10.67;;
3991;SDS011;2010;48.194;16.394;2023-02-28T02:46:53;17.73;;;11.07;;
3991;SDS011;2010;48.194;16.394;2023-02-28T02:49:28;17.07;;;10.40;;
3991;SDS011;2010;48.194;16.394;2023-02-28T02:52:12;18.43;;;11.00;;
3991;SDS011;2010;48.194;16.394;2023-02-28T02:54:47;16.97;;;11.10;;
3991;SDS011;2010;48.194;16.394;2023-02-28T02:57:24;17.30;;;10.37;;
3991;SDS011;2010;48.194;16.394;2023-02-28T03:00:07;14.13;;;10.10;;
3991;SDS011;2010;48.194;16.394;2023-02-28T03:02:44;18.10;;;10.27;;
3991;SDS011;2010;48.194;16.394;2023-02-28T03:05:18;14.87;;;10.27;;
3991;SDS011;2010;48.194;16.394;2023-02-28T03:07:52;16.37;;;10.63;;
3991;SDS011;2010;48.194;16.394;2023-02-28T03:10:33;20.10;;;11.37;;
3991;SDS011;2010;48.194;16.394;2023-02-28T03:13:09;16.47;;;9.97;;
3991;SDS011;2010;48.194;16.394;2023-02-28T03:15:48;16.80;;;9.40;;
3991;SDS011;2010;48.194;16.394;2023-02-28T03:18:28;15.97;;;9.70;;
3991;SDS011;2010;48.194;16.394;2023-02-28T03:21:03;19.03;;;10.50;;
3991;SDS011;2010;48.194;16.394;2023-02-28T03:23:41;15.57;;;10.23;;
3991;SDS011;2010;48.194;16.394;2023-02-28T03:26:15;16.60;;;10.53;;
3991;SDS011;2010;48.194;16.394;2023-02-28T03:28:53;16.80;;;10.30;;
3991;SDS011;2010;48.194;16.394;2023-02-28T03:31:31;14.67;;;9.83;;
3991;SDS011;2010;48.194;16.394;2023-02-28T03:34:04;14.67;;;10.97;;
3991;SDS011;2010;48.194;16.394;2023-02-28T03:36:41;15.20;;;10.10;;
3991;SDS011;2010;48.194;16.394;2023-02-28T03:39:20;14.20;;;10.40;;
3991;SDS011;2010;48.194;16.394;2023-02-28T03:41:51;14.43;;;9.40;;
3991;SDS011;2010;48.194;16.394;2023-02-28T03:44:30;14.67;;;10.23;;
3991;SDS011;2010;48.194;16.394;2023-02-28T03:47:04;19.67;;;10.23;;
3991;SDS011;2010;48.194;16.394;2023-02-28T03:49:38;13.43;;;8.97;;
3991;SDS011;2010;48.194;16.394;2023-02-28T03:52:15;14.83;;;10.43;;
3991;SDS011;2010;48.194;16.394;2023-02-28T03:54:50;15.20;;;10.00;;
3991;SDS011;2010;48.194;16.394;2023-02-28T03:57:27;16.07;;;10.60;;
3991;SDS011;2010;48.194;16.394;2023-02-28T04:00:04;16.30;;;10.13;;
3991;SDS011;2010;48.194;16.394;2023-02-28T04:02:42;19.37;;;10.80;;
3991;SDS011;2010;48.194;16.394;2023-02-28T04:05:11;15.43;;;10.83;;
3991;SDS011;2010;48.194;16.394;2023-02-28T04:07:45;16.37;;;11.73;;
3991;SDS011;2010;48.194;16.394;2023-02-28T04:10:20;17.40;;;11.47;;
3991;SDS011;2010;48.194;16.394;2023-02-28T04:12:48;21.13;;;11.93;;
3991;SDS011;2010;48.194;16.394;2023-02-28T04:15:29;16.50;;;10.90;;
3991;SDS011;2010;48.194;16.394;2023-02-28T04:17:59;16.40;;;10.23;;
3991;SDS011;2010;48.194;16.394;2023-02-28T04:20:36;13.70;;;10.57;;
3991;SDS011;2010;48.194;16.394;2023-02-28T04:23:13;20.10;;;11.77;;
3991;SDS011;2010;48.194;16.394;2023-02-28T04:25:54;17.07;;;10.70;;
3991;SDS011;2010;48.194;16.394;2023-02-28T04:28:26;17.57;;;10.80;;
3991;SDS011;2010;48.194;16.394;2023-02-28T04:30:56;17.93;;;10.03;;
3991;SDS011;2010;48.194;16.394;2023-02-28T04:33:30;16.27;;;11.23;;
3991;SDS011;2010;48.194;16.394;2023-02-28T04:36:01;14.53;;;10.37;;
3991;SDS011;2010;48.194;16.394;2023-02-28T04:38:34;16.50;;;10.80;;
3991;SDS011;2010;48.194;16.394;2023-02-28T04:41:18;18.13;;;10.87;;
3991;SDS011;2010;48.194;16.394;2023-02-28T04:43:52;18.30;;;10.50;;
3991;SDS011;2010;48.194;16.394;2023-02-28T04:46:24;18.53;;;10.10;;
3991;SDS011;2010;48.194;16.394;2023-02-28T04:49:02;16.93;;;11.10;;
3991;SDS011;2010;48.194;16.394;2023-02-28T04:51:30;17.23;;;11.70;;
3991;SDS011;2010;48.194;16.394;2023-02-28T04:54:02;12.37;;;9.40;;
3991;SDS011;2010;48.194;16.394;2023-02-28T04:56:35;21.07;;;11.80;;
3991;SDS011;2010;48.194;16.394;2023-02-28T04:59:04;18.37;;;10.63;;
3991;SDS011;2010;48.194;16.394;2023-02-28T05:01:37;20.73;;;10.97;;
3991;SDS011;2010;48.194;16.394;2023-02-28T05:04:11;17.87;;;11.13;;
3991;SDS011;2010;48.194;16.394;2023-02-28T05:06:39;14.27;;;10.63;;
3991;SDS011;2010;48.194;16.394;2023-02-28T05:09:09;17.07;;;10.77;;
3991;SDS011;2010;48.194;16.394;2023-02-28T05:11:50;14.53;;;10.00;;
3991;SDS011;2010;48.194;16.394;2023-02-28T05:14:25;18.43;;;12.47;;
3991;SDS011;2010;48.194;16.394;2023-02-28T05:16:54;19.73;;;11.53;;
3991;SDS011;2010;48.194;16.394;2023-02-28T05:19:28;16.50;;;11.07;;
3991;SDS011;2010;48.194;16.394;2023-02-28T05:22:13;16.80;;;10.80;;
3991;SDS011;2010;48.194;16.394;2023-02-28T05:24:48;18.70;;;10.83;;
3991;SDS011;2010;48.194;16.394;2023-02-28T05:27:29;14.37;;;10.70;;
3991;SDS011;2010;48.194;16.394;2023-02-28T05:30:04;19.47;;;11.50;;
3991;SDS011;2010;48.194;16.394;2023-02-28T05:32:40;16.70;;;11.50;;
3991;SDS011;2010;48.194;16.394;2023-02-28T05:35:19;18.07;;;11.60;;
3991;SDS011;2010;48.194;16.394;2023-02-28T05:37:48;23.67;;;12.07;;
3991;SDS011;2010;48.194;16.394;2023-02-28T05:40:20;17.00;;;11.43;;
3991;SDS011;2010;48.194;16.394;2023-02-28T05:42:53;20.03;;;11.30;;
3991;SDS011;2010;48.194;16.394;2023-02-28T05:45:21;18.30;;;12.00;;
3991;SDS011;2010;48.194;16.394;2023-02-28T05:47:53;20.07;;;13.03;;
3991;SDS011;2010;48.194;16.394;2023-02-28T05:50:25;26.50;;;13.63;;
3991;SDS011;2010;48.194;16.394;2023-02-28T05:53:00;27.50;;;15.60;;
3991;SDS011;2010;48.194;16.394;2023-02-28T05:55:29;22.13;;;12.63;;
3991;SDS011;2010;48.194;16.394;2023-02-28T05:58:01;21.43;;;13.63;;
3991;SDS011;2010;48.194;16.394;2023-02-28T06:07:54;20.10;;;13.27;;
3991;SDS011;2010;48.194;16.394;2023-02-28T06:10:29;21.27;;;12.73;;
3991;SDS011;2010;48.194;16.394;2023-02-28T06:13:00;21.80;;;12.90;;
3991;SDS011;2010;48.194;16.394;2023-02-28T06:15:39;31.20;;;18.30;;
3991;SDS011;2010;48.194;16.394;2023-02-28T06:18:17;24.03;;;14.87;;
3991;SDS011;2010;48.194;16.394;2023-02-28T06:20:52;24.00;;;13.80;;
3991;SDS011;2010;48.194;16.394;2023-02-28T06:23:23;22.10;;;13.47;;
3991;SDS011;2010;48.194;16.394;2023-02-28T06:25:52;19.93;;;12.20;;
3991;SDS011;2010;48.194;16.394;2023-02-28T06:28:31;20.33;;;13.17;;
3991;SDS011;2010;48.194;16.394;2023-02-28T06:31:05;18.50;;;13.43;;
3991;SDS011;2010;48.194;16.394;2023-02-28T06:33:38;19.10;;;11.40;;
3991;SDS011;2010;48.194;16.394;2023-02-28T06:36:07;24.10;;;13.03;;
3991;SDS011;2010;48.194;16.394;2023-02-28T06:38:37;19.17;;;12.90;;
3991;SDS011;2010;48.194;16.394;2023-02-28T06:41:19;24.13;;;15.17;;
3991;SDS011;2010;48.194;16.394;2023-02-28T06:44:33;30.60;;;16.30;;
3991;SDS011;2010;48.194;16.394;2023-02-28T06:47:04;28.37;;;17.60;;
3991;SDS011;2010;48.194;16.394;2023-02-28T06:49:34;51.80;;;25.87;;
3991;SDS011;2010;48.194;16.394;2023-02-28T06:52:06;68.17;;;29.77;;
3991;SDS011;2010;48.194;16.394;2023-02-28T06:54:45;66.80;;;28.07;;
3991;SDS011;2010;48.194;16.394;2023-02-28T06:57:15;47.70;;;23.50;;
3991;SDS011;2010;48.194;16.394;2023-02-28T06:59:55;53.97;;;25.40;;
3991;SDS011;2010;48.194;16.394;2023-02-28T07:02:26;104.57;;;37.30;;
3991;SDS011;2010;48.194;16.394;2023-02-28T07:05:05;102.30;;;35.33;;
3991;SDS011;2010;48.194;16.394;2023-02-28T07:07:34;80.77;;;30.70;;
3991;SDS011;2010;48.194;16.394;2023-02-28T07:10:11;39.97;;;22.07;;
3991;SDS011;2010;48.194;16.394;2023-02-28T07:12:43;42.13;;;21.63;;
3991;SDS011;2010;48.194;16.394;2023-02-28T07:15:13;38.23;;;17.57;;
3991;SDS011;2010;48.194;16.394;2023-02-28T07:17:47;25.13;;;14.80;;
3991;SDS011;2010;48.194;16.394;2023-02-28T07:20:19;34.33;;;14.67;;
3991;SDS011;2010;48.194;16.394;2023-02-28T07:22:48;19.87;;;13.90;;
3991;SDS011;2010;48.194;16.394;2023-02-28T07:25:29;19.97;;;13.10;;
3991;SDS011;2010;48.194;16.394;2023-02-28T07:28:02;22.60;;;14.47;;
3991;SDS011;2010;48.194;16.394;2023-02-28T07:30:37;31.97;;;17.33;;
3991;SDS011;2010;48.194;16.394;2023-02-28T07:33:07;38.63;;;20.53;;
3991;SDS011;2010;48.194;16.394;2023-02-28T07:35:45;36.20;;;21.40;;
3991;SDS011;2010;48.194;16.394;2023-02-28T07:38:21;24.90;;;16.60;;
3991;SDS011;2010;48.194;16.394;2023-02-28T07:40:51;26.60;;;15.30;;
3991;SDS011;2010;48.194;16.394;2023-02-28T07:43:25;26.50;;;15.37;;
3991;SDS011;2010;48.194;16.394;2023-02-28T07:45:56;25.80;;;13.97;;
3991;SDS011;2010;48.194;16.394;2023-02-28T07:48:32;20.10;;;13.37;;
3991;SDS011;2010;48.194;16.394;2023-02-28T07:51:01;19.70;;;13.53;;
3991;SDS011;2010;48.194;16.394;2023-02-28T07:53:30;22.40;;;14.77;;
3991;SDS011;2010;48.194;16.394;2023-02-28T07:56:02;19.83;;;14.00;;
3991;SDS011;2010;48.194;16.394;2023-02-28T07:58:43;22.00;;;13.90;;
3991;SDS011;2010;48.194;16.394;2023-02-28T08:01:18;22.40;;;14.20;;
3991;SDS011;2010;48.194;16.394;2023-02-28T08:03:52;24.20;;;15.13;;
3991;SDS011;2010;48.194;16.394;2023-02-28T08:06:25;20.03;;;14.47;;
3991;SDS011;2010;48.194;16.394;2023-02-28T08:08:54;23.73;;;13.87;;
3991;SDS011;2010;48.194;16.394;2023-02-28T08:11:26;22.80;;;14.70;;
3991;SDS011;2010;48.194;16.394;2023-02-28T08:13:58;23.37;;;13.63;;
3991;SDS011;2010;48.194;16.394;2023-02-28T08:16:31;22.07;;;15.33;;
3991;SDS011;2010;48.194;16.394;2023-02-28T08:19:00;22.77;;;14.87;;
3991;SDS011;2010;48.194;16.394;2023-02-28T08:21:29;25.17;;;15.80;;
3991;SDS011;2010;48.194;16.394;2023-02-28T08:24:00;21.83;;;14.87;;
3991;SDS011;2010;48.194;16.394;2023-02-28T08:26:29;22.50;;;15.00;;
3991;SDS011;2010;48.194;16.394;2023-02-28T08:29:00;20.23;;;15.07;;
3991;SDS011;2010;48.194;16.394;2023-02-28T08:31:38;19.70;;;13.10;;
3991;SDS011;2010;48.194;16.394;2023-02-28T08:34:16;19.67;;;14.73;;
3991;SDS011;2010;48.194;16.394;2023-02-28T08:36:46;23.40;;;15.17;;
3991;SDS011;2010;48.194;16.394;2023-02-28T08:39:16;27.73;;;16.60;;
3991;SDS011;2010;48.194;16.394;2023-02-28T08:41:47;21.20;;;14.73;;
3991;SDS011;2010;48.194;16.394;2023-02-28T08:44:33;19.80;;;14.00;;
3991;SDS011;2010;48.194;16.394;2023-02-28T08:47:07;21.97;;;14.97;;
3991;SDS011;2010;48.194;16.394;2023-02-28T08:49:39;23.53;;;14.70;;
3991;SDS011;2010;48.194;16.394;2023-02-28T08:52:09;20.60;;;14.20;;
3991;SDS011;2010;48.194;16.394;2023-02-28T08:54:40;21.03;;;13.97;;
3991;SDS011;2010;48.194;16.394;2023-02-28T08:57:11;24.33;;;14.17;;
3991;SDS011;2010;48.194;16.394;2023-02-28T08:59:44;20.90;;;12.90;;
3991;SDS011;2010;48.194;16.394;2023-02-28T09:02:25;21.83;;;14.53;;
3991;SDS011;2010;48.194;16.394;2023-02-28T09:04:54;23.57;;;14.90;;
3991;SDS011;2010;48.194;16.394;2023-02-28T09:07:25;23.00;;;13.87;;
3991;SDS011;2010;48.194;16.394;2023-02-28T09:09:58;28.90;;;16.40;;
3991;SDS011;2010;48.194;16.394;2023-02-28T09:12:31;30.13;;;16.43;;
3991;SDS011;2010;48.194;16.394;2023-02-28T09:15:02;22.73;;;15.00;;
3991;SDS011;2010;48.194;16.394;2023-02-28T09:17:36;21.03;;;14.40;;
3991;SDS011;2010;48.194;16.394;2023-02-28T09:20:09;18.40;;;13.33;;
3991;SDS011;2010;48.194;16.394;2023-02-28T09:22:53;19.47;;;13.03;;
3991;SDS011;2010;48.194;16.394;2023-02-28T09:25:22;19.17;;;14.03;;
3991;SDS011;2010;48.194;16.394;2023-02-28T09:27:54;16.07;;;12.53;;
3991;SDS011;2010;48.194;16.394;2023-02-28T09:30:25;19.97;;;13.30;;
3991;SDS011;2010;48.194;16.394;2023-02-28T09:32:55;17.50;;;13.60;;
3991;SDS011;2010;48.194;16.394;2023-02-28T09:35:27;16.43;;;12.53;;
3991;SDS011;2010;48.194;16.394;2023-02-28T09:38:06;21.67;;;12.63;;
3991;SDS011;2010;48.194;16.394;2023-02-28T09:40:37;16.90;;;12.20;;
3991;SDS011;2010;48.194;16.394;2023-02-28T09:43:10;21.50;;;14.70;;
3991;SDS011;2010;48.194;16.394;2023-02-28T09:45:48;21.10;;;14.93;;
3991;SDS011;2010;48.194;16.394;2023-02-28T09:48:23;22.63;;;14.50;;
3991;SDS011;2010;48.194;16.394;2023-02-28T09:50:55;20.90;;;14.27;;
3991;SDS011;2010;48.194;16.394;2023-02-28T09:53:31;21.53;;;14.90;;
3991;SDS011;2010;48.194;16.394;2023-02-28T09:56:04;21.70;;;15.07;;
3991;SDS011;2010;48.194;16.394;2023-02-28T09:58:39;19.93;;;13.57;;
3991;SDS011;2010;48.194;16.394;2023-02-28T10:01:21;22.93;;;15.10;;
3991;SDS011;2010;48.194;16.394;2023-02-28T10:04:05;21.57;;;14.43;;
3991;SDS011;2010;48.194;16.394;2023-02-28T10:06:44;20.67;;;13.13;;
3991;SDS011;2010;48.194;16.394;2023-02-28T10:09:24;21.97;;;14.70;;
3991;SDS011;2010;48.194;16.394;2023-02-28T10:11:56;21.53;;;14.47;;
3991;SDS011;2010;48.194;16.394;2023-02-28T10:14:34;28.77;;;17.57;;
3991;SDS011;2010;48.194;16.394;2023-02-28T10:17:12;27.63;;;16.23;;
3991;SDS011;2010;48.194;16.394;2023-02-28T10:19:52;23.03;;;15.83;;
3991;SDS011;2010;48.194;16.394;2023-02-28T10:22:27;22.90;;;13.90;;
3991;SDS011;2010;48.194;16.394;2023-02-28T10:25:05;29.53;;;15.07;;
3991;SDS011;2010;48.194;16.394;2023-02-28T10:27:46;17.90;;;13.70;;
3991;SDS011;2010;48.194;16.394;2023-02-28T10:30:17;20.00;;;14.00;;
3991;SDS011;2010;48.194;16.394;2023-02-28T10:32:49;19.40;;;13.93;;
3991;SDS011;2010;48.194;16.394;2023-02-28T10:35:24;24.00;;;14.90;;
3991;SDS011;2010;48.194;16.394;2023-02-28T10:37:58;20.10;;;15.60;;
3991;SDS011;2010;48.194;16.394;2023-02-28T10:40:31;20.57;;;15.17;;
3991;SDS011;2010;48.194;16.394;2023-02-28T10:43:19;30.80;;;16.10;;
3991;SDS011;2010;48.194;16.394;2023-02-28T10:45:57;24.03;;;15.50;;
3991;SDS011;2010;48.194;16.394;2023-02-28T10:48:35;23.70;;;13.87;;
3991;SDS011;2010;48.194;16.394;2023-02-28T10:51:20;21.50;;;14.70;;
3991;SDS011;2010;48.194;16.394;2023-02-28T10:53:54;20.33;;;14.60;;
3991;SDS011;2010;48.194;16.394;2023-02-28T10:56:33;22.53;;;15.00;;
3991;SDS011;2010;48.194;16.394;2023-02-28T10:59:22;27.20;;;17.87;;
3991;SDS011;2010;48.194;16.394;2023-02-28T11:02:27;35.30;;;21.43;;
3991;SDS011;2010;48.194;16.394;2023-02-28T11:05:01;27.60;;;20.90;;
3991;SDS011;2010;48.194;16.394;2023-02-28T11:07:52;28.20;;;20.63;;
3991;SDS011;2010;48.194;16.394;2023-02-28T11:10:25;20.03;;;16.17;;
3991;SDS011;2010;48.194;16.394;2023-02-28T11:12:57;21.80;;;15.70;;
3991;SDS011;2010;48.194;16.394;2023-02-28T11:15:33;17.30;;;13.57;;
3991;SDS011;2010;48.194;16.394;2023-02-28T11:18:14;19.00;;;14.50;;
3991;SDS011;2010;48.194;16.394;2023-02-28T11:20:56;18.10;;;14.00;;
3991;SDS011;2010;48.194;16.394;2023-02-28T11:23:28;19.50;;;14.50;;
3991;SDS011;2010;48.194;16.394;2023-02-28T11:26:00;17.40;;;13.70;;
3991;SDS011;2010;48.194;16.394;2023-02-28T11:28:32;16.93;;;14.13;;
3991;SDS011;2010;48.194;16.394;2023-02-28T11:31:17;20.77;;;13.30;;
3991;SDS011;2010;48.194;16.394;2023-02-28T11:34:26;16.73;;;13.10;;
3991;SDS011;2010;48.194;16.394;2023-02-28T11:36:57;17.00;;;13.17;;
3991;SDS011;2010;48.194;16.394;2023-02-28T11:39:31;17.90;;;14.80;;
3991;SDS011;2010;48.194;16.394;2023-02-28T11:42:21;19.30;;;14.10;;
3991;SDS011;2010;48.194;16.394;2023-02-28T11:45:12;17.07;;;13.50;;
3991;SDS011;2010;48.194;16.394;2023-02-28T11:47:56;20.70;;;13.03;;
3991;SDS011;2010;48.194;16.394;2023-02-28T11:50:38;16.60;;;13.63;;
3991;SDS011;2010;48.194;16.394;2023-02-28T11:53:22;19.10;;;13.53;;
3991;SDS011;2010;48.194;16.394;2023-02-28T11:56:14;19.90;;;16.33;;
3991;SDS011;2010;48.194;16.394;2023-02-28T11:58:52;17.30;;;13.70;;
3991;SDS011;2010;48.194;16.394;2023-02-28T12:01:34;16.53;;;13.60;;
3991;SDS011;2010;48.194;16.394;2023-02-28T12:04:24;21.33;;;13.57;;
3991;SDS011;2010;48.194;16.394;2023-02-28T12:07:00;21.00;;;14.43;;
3991;SDS011;2010;48.194;16.394;2023-02-28T12:09:40;17.70;;;13.47;;
3991;SDS011;2010;48.194;16.394;2023-02-28T12:12:29;21.40;;;14.43;;
3991;SDS011;2010;48.194;16.394;2023-02-28T12:15:21;22.77;;;14.17;;
3991;SDS011;2010;48.194;16.394;2023-02-28T12:18:21;21.90;;;14.13;;
3991;SDS011;2010;48.194;16.394;2023-02-28T12:21:03;20.97;;;13.33;;
3991;SDS011;2010;48.194;16.394;2023-02-28T12:23:45;20.80;;;15.43;;
3991;SDS011;2010;48.194;16.394;2023-02-28T12:26:48;19.60;;;12.97;;
3991;SDS011;2010;48.194;16.394;2023-02-28T12:29:30;17.30;;;11.77;;
3991;SDS011;2010;48.194;16.394;2023-02-28T12:32:06;15.30;;;11.13;;
3991;SDS011;2010;48.194;16.394;2023-02-28T12:34:39;13.90;;;11.77;;
3991;SDS011;2010;48.194;16.394;2023-02-28T12:37:17;13.97;;;11.47;;
3991;SDS011;2010;48.194;16.394;2023-02-28T12:39:55;13.80;;;10.60;;
3991;SDS011;2010;48.194;16.394;2023-02-28T12:42:36;16.73;;;12.10;;
3991;SDS011;2010;48.194;16.394;2023-02-28T12:45:22;16.20;;;11.40;;
3991;SDS011;2010;48.194;16.394;2023-02-28T12:47:59;12.63;;;10.67;;
3991;SDS011;2010;48.194;16.394;2023-02-28T12:50:30;14.37;;;10.60;;
3991;SDS011;2010;48.194;16.394;2023-02-28T12:53:04;23.20;;;13.30;;
3991;SDS011;2010;48.194;16.394;2023-02-28T12:55:40;17.23;;;13.90;;
3991;SDS011;2010;48.194;16.394;2023-02-28T12:58:13;18.80;;;14.10;;
3991;SDS011;2010;48.194;16.394;2023-02-28T13:01:08;16.90;;;14.60;;
3991;SDS011;2010;48.194;16.394;2023-02-28T13:04:08;23.97;;;12.87;;
3991;SDS011;2010;48.194;16.394;2023-02-28T13:10:11;13.67;;;9.70;;
3991;SDS011;2010;48.194;16.394;2023-02-28T13:12:47;12.33;;;10.37;;
3991;SDS011;2010;48.194;16.394;2023-02-28T13:15:22;12.90;;;9.77;;
3991;SDS011;2010;48.194;16.394;2023-02-28T13:17:58;12.63;;;9.40;;
3991;SDS011;2010;48.194;16.394;2023-02-28T13:20:37;14.73;;;10.10;;
3991;SDS011;2010;48.194;16.394;2023-02-28T13:23:37;9.63;;;8.40;;
3991;SDS011;2010;48.194;16.394;2023-02-28T13:26:08;12.00;;;8.93;;
3991;SDS011;2010;48.194;16.394;2023-02-28T13:31:27;10.90;;;8.60;;
3991;SDS011;2010;48.194;16.394;2023-02-28T13:37:01;15.17;;;11.27;;
3991;SDS011;2010;48.194;16.394;2023-02-28T13:43:07;12.67;;;8.63;;
3991;SDS011;2010;48.194;16.394;2023-02-28T13:46:09;11.80;;;8.70;;
3991;SDS011;2010;48.194;16.394;2023-02-28T13:48:41;11.13;;;9.53;;
3991;SDS011;2010;48.194;16.394;2023-02-28T13:54:14;9.80;;;8.80;;
3991;SDS011;2010;48.194;16.394;2023-02-28T13:56:53;11.80;;;9.20;;
3991;SDS011;2010;48.194;16.394;2023-02-28T13:59:32;13.20;;;9.67;;
3991;SDS011;2010;48.194;16.394;2023-02-28T14:02:23;13.77;;;9.93;;
3991;SDS011;2010;48.194;16.394;2023-02-28T14:05:05;14.60;;;10.73;;
3991;SDS011;2010;48.194;16.394;2023-02-28T14:07:52;13.73;;;10.10;;
3991;SDS011;2010;48.194;16.394;2023-02-28T14:10:24;12.80;;;9.07;;
3991;SDS011;2010;48.194;16.394;2023-02-28T14:13:02;12.30;;;9.70;;
3991;SDS011;2010;48.194;16.394;2023-02-28T14:15:44;17.97;;;9.50;;
3991;SDS011;2010;48.194;16.394;2023-02-28T14:18:21;17.70;;;11.63;;
3991;SDS011;2010;48.194;16.394;2023-02-28T14:20:56;14.00;;;10.93;;
3991;SDS011;2010;48.194;16.394;2023-02-28T14:23:45;12.83;;;10.03;;
3991;SDS011;2010;48.194;16.394;2023-02-28T14:29:30;12.07;;;9.20;;
3991;SDS011;2010;48.194;16.394;2023-02-28T14:32:10;11.97;;;9.87;;
3991;SDS011;2010;48.194;16.394;2023-02-28T14:34:55;12.67;;;11.30;;
3991;SDS011;2010;48.194;16.394;2023-02-28T14:37:33;14.43;;;10.43;;
3991;SDS011;2010;48.194;16.394;2023-02-28T14:40:14;15.00;;;11.23;;
3991;SDS011;2010;48.194;16.394;2023-02-28T14:42:54;11.97;;;10.73;;
3991;SDS011;2010;48.194;16.394;2023-02-28T14:45:25;15.90;;;11.03;;
3991;SDS011;2010;48.194;16.394;2023-02-28T14:47:57;14.50;;;10.97;;
3991;SDS011;2010;48.194;16.394;2023-02-28T14:50:29;14.80;;;11.10;;
3991;SDS011;2010;48.194;16.394;2023-02-28T14:53:02;14.90;;;11.00;;
3991;SDS011;2010;48.194;16.394;2023-02-28T14:55:43;12.40;;;9.57;;
3991;SDS011;2010;48.194;16.394;2023-02-28T14:58:20;13.70;;;10.90;;
3991;SDS011;2010;48.194;16.394;2023-02-28T15:00:57;13.50;;;11.60;;
3991;SDS011;2010;48.194;16.394;2023-02-28T15:03:31;16.33;;;10.63;;
3991;SDS011;2010;48.194;16.394;2023-02-28T15:06:12;12.83;;;10.63;;
3991;SDS011;2010;48.194;16.394;2023-02-28T15:08:45;18.50;;;10.70;;
3991;SDS011;2010;48.194;16.394;2023-02-28T15:11:20;12.40;;;10.00;;
3991;SDS011;2010;48.194;16.394;2023-02-28T15:13:52;13.63;;;10.03;;
3991;SDS011;2010;48.194;16.394;2023-02-28T15:16:34;12.17;;;10.87;;
3991;SDS011;2010;48.194;16.394;2023-02-28T15:19:14;18.50;;;11.50;;
3991;SDS011;2010;48.194;16.394;2023-02-28T15:21:48;15.00;;;11.97;;
3991;SDS011;2010;48.194;16.394;2023-02-28T15:24:22;17.90;;;13.13;;
3991;SDS011;2010;48.194;16.394;2023-02-28T15:27:04;17.03;;;12.00;;
3991;SDS011;2010;48.194;16.394;2023-02-28T15:29:37;15.97;;;12.30;;
3991;SDS011;2010;48.194;16.394;2023-02-28T15:32:21;15.67;;;12.87;;
3991;SDS011;2010;48.194;16.394;2023-02-28T15:35:17;13.40;;;12.00;;
3991;SDS011;2010;48.194;16.394;2023-02-28T15:37:52;16.40;;;12.40;;
3991;SDS011;2010;48.194;16.394;2023-02-28T15:40:36;17.30;;;13.13;;
3991;SDS011;2010;48.194;16.394;2023-02-28T15:43:14;17.70;;;12.50;;
3991;SDS011;2010;48.194;16.394;2023-02-28T15:45:50;16.67;;;11.50;;
3991;SDS011;2010;48.194;16.394;2023-02-28T15:48:21;17.40;;;12.63;;
3991;SDS011;2010;48.194;16.394;2023-02-28T15:50:52;15.97;;;12.10;;
3991;SDS011;2010;48.194;16.394;2023-02-28T15:53:25;15.73;;;11.43;;
3991;SDS011;2010;48.194;16.394;2023-02-28T15:55:59;17.10;;;11.37;;
3991;SDS011;2010;48.194;16.394;2023-02-28T15:58:38;15.43;;;12.17;;
3991;SDS011;2010;48.194;16.394;2023-02-28T16:01:21;13.77;;;12.10;;
3991;SDS011;2010;48.194;16.394;2023-02-28T16:03:59;12.53;;;11.20;;
3991;SDS011;2010;48.194;16.394;2023-02-28T16:09:31;16.83;;;12.10;;
3991;SDS011;2010;48.194;16.394;2023-02-28T16:12:08;14.33;;;12.10;;
3991;SDS011;2010;48.194;16.394;2023-02-28T16:14:44;14.03;;;12.47;;